sensor_id;sensor_type;location;lat;lon;timestamp;P1;durP1;ratioP1;P2;durP2;ratioP2
10769;SDS011;5437;50.852;4.438;2022-11-20T00:02:21;28.45;;;18.63;;
10769;SDS011;5437;50.852;4.438;2022-11-20T00:04:47;30.70;;;19.42;;
10769;SDS011;5437;50.852;4.438;2022-11-20T00:07:13;28.05;;;19.05;;
10769;SDS011;5437;50.852;4.438;2022-11-20T00:09:39;27.42;;;17.67;;
10769;SDS011;5437;50.852;4.438;2022-11-20T00:12:05;32.65;;;18.65;;
10769;SDS011;5437;50.852;4.438;2022-11-20T00:14:31;28.92;;;18.77;;
10769;SDS011;5437;50.852;4.438;2022-11-20T00:16:57;29.73;;;18.48;;
10769;SDS011;5437;50.852;4.438;2022-11-20T00:19:23;26.98;;;17.40;;
10769;SDS011;5437;50.852;4.438;2022-11-20T00:21:50;28.35;;;19.08;;
10769;SDS011;5437;50.852;4.438;2022-11-20T00:24:18;28.48;;;18.75;;
10769;SDS011;5437;50.852;4.438;2022-11-20T00:26:44;26.73;;;17.38;;
10769;SDS011;5437;50.852;4.438;2022-11-20T00:29:10;27.63;;;19.65;;
10769;SDS011;5437;50.852;4.438;2022-11-20T00:31:37;27.45;;;19.15;;
10769;SDS011;5437;50.852;4.438;2022-11-20T00:34:03;26.95;;;18.48;;
10769;SDS011;5437;50.852;4.438;2022-11-20T00:36:31;27.92;;;19.13;;
10769;SDS011;5437;50.852;4.438;2022-11-20T00:38:58;24.85;;;17.77;;
10769;SDS011;5437;50.852;4.438;2022-11-20T00:41:24;39.95;;;20.75;;
10769;SDS011;5437;50.852;4.438;2022-11-20T00:43:51;27.13;;;19.08;;
10769;SDS011;5437;50.852;4.438;2022-11-20T00:46:19;28.83;;;18.70;;
10769;SDS011;5437;50.852;4.438;2022-11-20T00:48:45;30.05;;;18.98;;
10769;SDS011;5437;50.852;4.438;2022-11-20T00:51:12;27.45;;;18.35;;
10769;SDS011;5437;50.852;4.438;2022-11-20T00:53:38;27.95;;;18.52;;
10769;SDS011;5437;50.852;4.438;2022-11-20T00:56:06;27.48;;;18.25;;
10769;SDS011;5437;50.852;4.438;2022-11-20T00:58:33;26.17;;;18.27;;
10769;SDS011;5437;50.852;4.438;2022-11-20T01:01:04;26.92;;;18.23;;
10769;SDS011;5437;50.852;4.438;2022-11-20T01:03:31;28.05;;;18.02;;
10769;SDS011;5437;50.852;4.438;2022-11-20T01:06:04;28.05;;;19.08;;
10769;SDS011;5437;50.852;4.438;2022-11-20T01:08:34;31.02;;;19.20;;
10769;SDS011;5437;50.852;4.438;2022-11-20T01:11:01;29.75;;;19.90;;
10769;SDS011;5437;50.852;4.438;2022-11-20T01:13:28;27.63;;;19.40;;
10769;SDS011;5437;50.852;4.438;2022-11-20T01:16:10;27.23;;;18.55;;
10769;SDS011;5437;50.852;4.438;2022-11-20T01:18:37;29.42;;;18.98;;
10769;SDS011;5437;50.852;4.438;2022-11-20T01:21:07;26.83;;;18.58;;
10769;SDS011;5437;50.852;4.438;2022-11-20T01:23:34;27.42;;;18.70;;
10769;SDS011;5437;50.852;4.438;2022-11-20T01:26:01;29.63;;;19.80;;
10769;SDS011;5437;50.852;4.438;2022-11-20T01:28:28;30.35;;;20.55;;
10769;SDS011;5437;50.852;4.438;2022-11-20T01:30:54;29.38;;;20.10;;
10769;SDS011;5437;50.852;4.438;2022-11-20T01:33:20;33.60;;;21.38;;
10769;SDS011;5437;50.852;4.438;2022-11-20T01:35:46;32.33;;;21.17;;
10769;SDS011;5437;50.852;4.438;2022-11-20T01:38:12;34.92;;;21.33;;
10769;SDS011;5437;50.852;4.438;2022-11-20T01:40:40;32.08;;;21.05;;
10769;SDS011;5437;50.852;4.438;2022-11-20T01:43:14;31.55;;;21.13;;
10769;SDS011;5437;50.852;4.438;2022-11-20T01:48:14;34.05;;;20.77;;
10769;SDS011;5437;50.852;4.438;2022-11-20T01:50:40;33.08;;;21.73;;
10769;SDS011;5437;50.852;4.438;2022-11-20T01:53:09;34.22;;;22.00;;
10769;SDS011;5437;50.852;4.438;2022-11-20T01:55:39;33.03;;;20.98;;
10769;SDS011;5437;50.852;4.438;2022-11-20T01:58:05;35.40;;;21.70;;
10769;SDS011;5437;50.852;4.438;2022-11-20T02:00:32;34.03;;;21.05;;
10769;SDS011;5437;50.852;4.438;2022-11-20T02:03:02;34.30;;;21.27;;
10769;SDS011;5437;50.852;4.438;2022-11-20T02:05:33;34.40;;;21.83;;
10769;SDS011;5437;50.852;4.438;2022-11-20T02:08:02;34.75;;;21.52;;
10769;SDS011;5437;50.852;4.438;2022-11-20T02:10:28;37.80;;;22.08;;
10769;SDS011;5437;50.852;4.438;2022-11-20T02:12:55;34.08;;;21.27;;
10769;SDS011;5437;50.852;4.438;2022-11-20T02:15:40;36.78;;;22.10;;
10769;SDS011;5437;50.852;4.438;2022-11-20T02:18:06;31.65;;;20.90;;
10769;SDS011;5437;50.852;4.438;2022-11-20T02:20:33;34.00;;;21.60;;
10769;SDS011;5437;50.852;4.438;2022-11-20T02:25:25;33.63;;;21.10;;
10769;SDS011;5437;50.852;4.438;2022-11-20T02:27:52;35.28;;;21.60;;
10769;SDS011;5437;50.852;4.438;2022-11-20T02:30:18;36.47;;;22.42;;
10769;SDS011;5437;50.852;4.438;2022-11-20T02:32:44;33.80;;;22.23;;
10769;SDS011;5437;50.852;4.438;2022-11-20T02:37:49;34.75;;;22.60;;
10769;SDS011;5437;50.852;4.438;2022-11-20T02:40:16;35.63;;;22.55;;
10769;SDS011;5437;50.852;4.438;2022-11-20T02:42:42;35.72;;;21.90;;
10769;SDS011;5437;50.852;4.438;2022-11-20T02:45:09;38.53;;;22.27;;
10769;SDS011;5437;50.852;4.438;2022-11-20T02:47:35;38.47;;;22.63;;
10769;SDS011;5437;50.852;4.438;2022-11-20T02:50:01;35.85;;;22.40;;
10769;SDS011;5437;50.852;4.438;2022-11-20T02:52:27;37.08;;;23.35;;
10769;SDS011;5437;50.852;4.438;2022-11-20T02:54:53;39.05;;;23.60;;
10769;SDS011;5437;50.852;4.438;2022-11-20T02:57:19;38.13;;;23.77;;
10769;SDS011;5437;50.852;4.438;2022-11-20T02:59:45;37.50;;;23.58;;
10769;SDS011;5437;50.852;4.438;2022-11-20T03:02:11;35.03;;;22.63;;
10769;SDS011;5437;50.852;4.438;2022-11-20T03:04:38;37.35;;;23.27;;
10769;SDS011;5437;50.852;4.438;2022-11-20T03:07:04;28.75;;;18.42;;
10769;SDS011;5437;50.852;4.438;2022-11-20T03:09:30;27.50;;;17.90;;
10769;SDS011;5437;50.852;4.438;2022-11-20T03:11:56;28.02;;;18.30;;
10769;SDS011;5437;50.852;4.438;2022-11-20T03:14:22;28.65;;;17.10;;
10769;SDS011;5437;50.852;4.438;2022-11-20T03:16:48;25.02;;;16.02;;
10769;SDS011;5437;50.852;4.438;2022-11-20T03:19:14;24.50;;;15.07;;
10769;SDS011;5437;50.852;4.438;2022-11-20T03:21:40;25.38;;;16.13;;
10769;SDS011;5437;50.852;4.438;2022-11-20T03:24:06;26.55;;;16.02;;
10769;SDS011;5437;50.852;4.438;2022-11-20T03:26:33;24.23;;;15.60;;
10769;SDS011;5437;50.852;4.438;2022-11-20T03:28:59;18.15;;;11.48;;
10769;SDS011;5437;50.852;4.438;2022-11-20T03:31:27;18.00;;;11.57;;
10769;SDS011;5437;50.852;4.438;2022-11-20T03:33:53;18.70;;;11.82;;
10769;SDS011;5437;50.852;4.438;2022-11-20T03:36:20;17.88;;;11.52;;
10769;SDS011;5437;50.852;4.438;2022-11-20T03:38:46;17.77;;;11.93;;
10769;SDS011;5437;50.852;4.438;2022-11-20T03:41:14;20.67;;;13.23;;
10769;SDS011;5437;50.852;4.438;2022-11-20T03:43:40;20.98;;;13.55;;
10769;SDS011;5437;50.852;4.438;2022-11-20T03:46:06;22.75;;;14.23;;
10769;SDS011;5437;50.852;4.438;2022-11-20T03:48:33;26.80;;;15.70;;
10769;SDS011;5437;50.852;4.438;2022-11-20T03:51:06;23.15;;;14.23;;
10769;SDS011;5437;50.852;4.438;2022-11-20T03:53:32;22.67;;;14.82;;
10769;SDS011;5437;50.852;4.438;2022-11-20T03:55:58;23.17;;;14.57;;
10769;SDS011;5437;50.852;4.438;2022-11-20T03:58:24;22.77;;;14.90;;
10769;SDS011;5437;50.852;4.438;2022-11-20T04:00:51;28.33;;;16.77;;
10769;SDS011;5437;50.852;4.438;2022-11-20T04:03:17;26.80;;;16.08;;
10769;SDS011;5437;50.852;4.438;2022-11-20T04:05:43;25.33;;;15.85;;
10769;SDS011;5437;50.852;4.438;2022-11-20T04:08:09;28.45;;;16.67;;
10769;SDS011;5437;50.852;4.438;2022-11-20T04:10:35;30.60;;;17.25;;
10769;SDS011;5437;50.852;4.438;2022-11-20T04:13:01;29.10;;;16.65;;
10769;SDS011;5437;50.852;4.438;2022-11-20T04:15:27;28.00;;;17.10;;
10769;SDS011;5437;50.852;4.438;2022-11-20T04:17:53;29.20;;;17.27;;
10769;SDS011;5437;50.852;4.438;2022-11-20T04:20:19;29.20;;;18.05;;
10769;SDS011;5437;50.852;4.438;2022-11-20T04:22:45;33.15;;;18.02;;
10769;SDS011;5437;50.852;4.438;2022-11-20T04:25:11;32.42;;;18.08;;
10769;SDS011;5437;50.852;4.438;2022-11-20T04:27:37;29.90;;;17.80;;
10769;SDS011;5437;50.852;4.438;2022-11-20T04:30:04;32.25;;;18.85;;
10769;SDS011;5437;50.852;4.438;2022-11-20T04:32:30;31.15;;;17.30;;
10769;SDS011;5437;50.852;4.438;2022-11-20T04:34:56;30.98;;;18.15;;
10769;SDS011;5437;50.852;4.438;2022-11-20T04:37:22;30.85;;;18.35;;
10769;SDS011;5437;50.852;4.438;2022-11-20T04:39:48;33.10;;;19.08;;
10769;SDS011;5437;50.852;4.438;2022-11-20T04:42:14;31.00;;;17.63;;
10769;SDS011;5437;50.852;4.438;2022-11-20T04:44:55;36.30;;;18.60;;
10769;SDS011;5437;50.852;4.438;2022-11-20T04:47:22;32.47;;;19.08;;
10769;SDS011;5437;50.852;4.438;2022-11-20T04:49:48;35.25;;;19.98;;
10769;SDS011;5437;50.852;4.438;2022-11-20T04:52:14;35.42;;;18.58;;
10769;SDS011;5437;50.852;4.438;2022-11-20T04:54:40;35.70;;;18.88;;
10769;SDS011;5437;50.852;4.438;2022-11-20T04:57:06;34.78;;;19.42;;
10769;SDS011;5437;50.852;4.438;2022-11-20T04:59:32;36.80;;;19.27;;
10769;SDS011;5437;50.852;4.438;2022-11-20T05:01:58;37.13;;;19.40;;
10769;SDS011;5437;50.852;4.438;2022-11-20T05:04:24;34.92;;;18.67;;
10769;SDS011;5437;50.852;4.438;2022-11-20T05:06:50;34.15;;;18.73;;
10769;SDS011;5437;50.852;4.438;2022-11-20T05:09:16;36.38;;;19.35;;
10769;SDS011;5437;50.852;4.438;2022-11-20T05:11:42;36.03;;;18.85;;
10769;SDS011;5437;50.852;4.438;2022-11-20T05:14:08;35.15;;;19.63;;
10769;SDS011;5437;50.852;4.438;2022-11-20T05:16:34;36.60;;;20.05;;
10769;SDS011;5437;50.852;4.438;2022-11-20T05:19:01;33.90;;;17.98;;
10769;SDS011;5437;50.852;4.438;2022-11-20T05:21:29;32.58;;;19.08;;
10769;SDS011;5437;50.852;4.438;2022-11-20T05:23:56;32.65;;;18.02;;
10769;SDS011;5437;50.852;4.438;2022-11-20T05:26:22;34.92;;;19.40;;
10769;SDS011;5437;50.852;4.438;2022-11-20T05:28:48;33.53;;;18.20;;
10769;SDS011;5437;50.852;4.438;2022-11-20T05:31:16;35.10;;;19.88;;
10769;SDS011;5437;50.852;4.438;2022-11-20T05:33:43;33.53;;;19.48;;
10769;SDS011;5437;50.852;4.438;2022-11-20T05:36:10;36.45;;;19.67;;
10769;SDS011;5437;50.852;4.438;2022-11-20T05:38:36;33.92;;;19.65;;
10769;SDS011;5437;50.852;4.438;2022-11-20T05:41:02;34.08;;;18.90;;
10769;SDS011;5437;50.852;4.438;2022-11-20T05:43:31;38.55;;;20.10;;
10769;SDS011;5437;50.852;4.438;2022-11-20T05:45:57;38.90;;;19.75;;
10769;SDS011;5437;50.852;4.438;2022-11-20T05:48:23;37.38;;;20.70;;
10769;SDS011;5437;50.852;4.438;2022-11-20T05:50:49;37.70;;;21.30;;
10769;SDS011;5437;50.852;4.438;2022-11-20T05:53:15;38.10;;;20.10;;
10769;SDS011;5437;50.852;4.438;2022-11-20T05:55:41;44.63;;;20.98;;
10769;SDS011;5437;50.852;4.438;2022-11-20T05:58:07;44.28;;;21.90;;
10769;SDS011;5437;50.852;4.438;2022-11-20T06:00:33;40.50;;;21.35;;
10769;SDS011;5437;50.852;4.438;2022-11-20T06:03:00;44.17;;;21.52;;
10769;SDS011;5437;50.852;4.438;2022-11-20T06:05:26;43.75;;;21.27;;
10769;SDS011;5437;50.852;4.438;2022-11-20T06:07:52;41.60;;;21.52;;
10769;SDS011;5437;50.852;4.438;2022-11-20T06:10:18;42.65;;;21.67;;
10769;SDS011;5437;50.852;4.438;2022-11-20T06:12:44;43.75;;;21.25;;
10769;SDS011;5437;50.852;4.438;2022-11-20T06:15:10;40.28;;;20.35;;
10769;SDS011;5437;50.852;4.438;2022-11-20T06:17:36;41.03;;;20.83;;
10769;SDS011;5437;50.852;4.438;2022-11-20T06:20:02;43.03;;;20.98;;
10769;SDS011;5437;50.852;4.438;2022-11-20T06:22:29;41.63;;;22.35;;
10769;SDS011;5437;50.852;4.438;2022-11-20T06:24:55;43.65;;;21.30;;
10769;SDS011;5437;50.852;4.438;2022-11-20T06:27:21;45.65;;;22.05;;
10769;SDS011;5437;50.852;4.438;2022-11-20T06:29:47;45.70;;;21.40;;
10769;SDS011;5437;50.852;4.438;2022-11-20T06:32:13;45.42;;;21.25;;
10769;SDS011;5437;50.852;4.438;2022-11-20T06:34:39;42.92;;;20.95;;
10769;SDS011;5437;50.852;4.438;2022-11-20T06:37:05;46.47;;;21.70;;
10769;SDS011;5437;50.852;4.438;2022-11-20T06:39:31;44.58;;;21.42;;
10769;SDS011;5437;50.852;4.438;2022-11-20T06:41:57;44.53;;;22.25;;
10769;SDS011;5437;50.852;4.438;2022-11-20T06:44:23;48.97;;;22.42;;
10769;SDS011;5437;50.852;4.438;2022-11-20T06:46:49;50.70;;;23.33;;
10769;SDS011;5437;50.852;4.438;2022-11-20T06:49:15;45.97;;;22.25;;
10769;SDS011;5437;50.852;4.438;2022-11-20T06:51:41;44.78;;;20.98;;
10769;SDS011;5437;50.852;4.438;2022-11-20T06:54:07;45.17;;;21.25;;
10769;SDS011;5437;50.852;4.438;2022-11-20T06:56:33;45.17;;;21.65;;
10769;SDS011;5437;50.852;4.438;2022-11-20T06:59:03;50.42;;;22.45;;
10769;SDS011;5437;50.852;4.438;2022-11-20T07:01:29;43.15;;;20.92;;
10769;SDS011;5437;50.852;4.438;2022-11-20T07:03:55;49.20;;;22.73;;
10769;SDS011;5437;50.852;4.438;2022-11-20T07:06:21;51.17;;;22.42;;
10769;SDS011;5437;50.852;4.438;2022-11-20T07:08:47;46.22;;;21.90;;
10769;SDS011;5437;50.852;4.438;2022-11-20T07:11:13;48.10;;;22.45;;
10769;SDS011;5437;50.852;4.438;2022-11-20T07:13:39;45.13;;;21.60;;
10769;SDS011;5437;50.852;4.438;2022-11-20T07:16:06;48.50;;;22.80;;
10769;SDS011;5437;50.852;4.438;2022-11-20T07:18:33;43.13;;;21.77;;
10769;SDS011;5437;50.852;4.438;2022-11-20T07:21:00;46.08;;;21.67;;
10769;SDS011;5437;50.852;4.438;2022-11-20T07:23:26;45.28;;;21.75;;
10769;SDS011;5437;50.852;4.438;2022-11-20T07:25:52;47.15;;;22.35;;
10769;SDS011;5437;50.852;4.438;2022-11-20T07:28:18;46.17;;;21.90;;
10769;SDS011;5437;50.852;4.438;2022-11-20T07:30:49;49.05;;;23.85;;
10769;SDS011;5437;50.852;4.438;2022-11-20T07:33:15;48.17;;;22.10;;
10769;SDS011;5437;50.852;4.438;2022-11-20T07:35:41;45.60;;;22.40;;
10769;SDS011;5437;50.852;4.438;2022-11-20T07:38:07;45.05;;;21.67;;
10769;SDS011;5437;50.852;4.438;2022-11-20T07:40:33;44.60;;;22.00;;
10769;SDS011;5437;50.852;4.438;2022-11-20T07:42:59;45.88;;;21.92;;
10769;SDS011;5437;50.852;4.438;2022-11-20T07:45:25;45.97;;;22.35;;
10769;SDS011;5437;50.852;4.438;2022-11-20T07:47:51;46.78;;;21.63;;
10769;SDS011;5437;50.852;4.438;2022-11-20T07:50:17;42.13;;;21.23;;
10769;SDS011;5437;50.852;4.438;2022-11-20T07:52:43;50.72;;;22.35;;
10769;SDS011;5437;50.852;4.438;2022-11-20T07:55:10;43.42;;;21.30;;
10769;SDS011;5437;50.852;4.438;2022-11-20T07:57:36;44.45;;;20.92;;
10769;SDS011;5437;50.852;4.438;2022-11-20T08:00:03;45.17;;;21.95;;
10769;SDS011;5437;50.852;4.438;2022-11-20T08:02:30;45.05;;;21.38;;
10769;SDS011;5437;50.852;4.438;2022-11-20T08:04:56;48.10;;;22.27;;
10769;SDS011;5437;50.852;4.438;2022-11-20T08:07:22;44.47;;;21.25;;
10769;SDS011;5437;50.852;4.438;2022-11-20T08:09:48;47.97;;;22.08;;
10769;SDS011;5437;50.852;4.438;2022-11-20T08:12:17;47.58;;;22.70;;
10769;SDS011;5437;50.852;4.438;2022-11-20T08:15:03;45.53;;;22.55;;
10769;SDS011;5437;50.852;4.438;2022-11-20T08:17:31;44.25;;;21.30;;
10769;SDS011;5437;50.852;4.438;2022-11-20T08:19:57;43.13;;;20.90;;
10769;SDS011;5437;50.852;4.438;2022-11-20T08:22:23;48.92;;;22.48;;
10769;SDS011;5437;50.852;4.438;2022-11-20T08:24:50;44.72;;;21.08;;
10769;SDS011;5437;50.852;4.438;2022-11-20T08:27:16;46.10;;;20.88;;
10769;SDS011;5437;50.852;4.438;2022-11-20T08:29:42;46.47;;;21.60;;
10769;SDS011;5437;50.852;4.438;2022-11-20T08:32:08;46.08;;;20.90;;
10769;SDS011;5437;50.852;4.438;2022-11-20T08:34:34;45.38;;;20.90;;
10769;SDS011;5437;50.852;4.438;2022-11-20T08:37:01;43.90;;;21.35;;
10769;SDS011;5437;50.852;4.438;2022-11-20T08:39:27;45.92;;;21.15;;
10769;SDS011;5437;50.852;4.438;2022-11-20T08:41:53;42.90;;;20.85;;
10769;SDS011;5437;50.852;4.438;2022-11-20T08:44:20;44.35;;;21.25;;
10769;SDS011;5437;50.852;4.438;2022-11-20T08:46:46;45.05;;;20.65;;
10769;SDS011;5437;50.852;4.438;2022-11-20T08:49:12;46.58;;;21.30;;
10769;SDS011;5437;50.852;4.438;2022-11-20T08:51:39;45.78;;;21.42;;
10769;SDS011;5437;50.852;4.438;2022-11-20T08:54:05;43.75;;;20.98;;
10769;SDS011;5437;50.852;4.438;2022-11-20T08:56:31;44.30;;;20.67;;
10769;SDS011;5437;50.852;4.438;2022-11-20T08:58:57;47.25;;;20.80;;
10769;SDS011;5437;50.852;4.438;2022-11-20T09:01:27;46.25;;;21.30;;
10769;SDS011;5437;50.852;4.438;2022-11-20T09:03:56;41.80;;;20.05;;
10769;SDS011;5437;50.852;4.438;2022-11-20T09:06:24;42.47;;;20.42;;
10769;SDS011;5437;50.852;4.438;2022-11-20T09:08:53;41.95;;;20.83;;
10769;SDS011;5437;50.852;4.438;2022-11-20T09:11:20;42.45;;;19.90;;
10769;SDS011;5437;50.852;4.438;2022-11-20T09:13:46;43.58;;;21.25;;
10769;SDS011;5437;50.852;4.438;2022-11-20T09:16:12;42.35;;;21.00;;
10769;SDS011;5437;50.852;4.438;2022-11-20T09:18:38;44.63;;;21.17;;
10769;SDS011;5437;50.852;4.438;2022-11-20T09:21:05;38.70;;;19.35;;
10769;SDS011;5437;50.852;4.438;2022-11-20T09:23:32;37.08;;;19.63;;
10769;SDS011;5437;50.852;4.438;2022-11-20T09:26:09;35.85;;;18.50;;
10769;SDS011;5437;50.852;4.438;2022-11-20T09:28:36;35.00;;;18.08;;
10769;SDS011;5437;50.852;4.438;2022-11-20T09:31:05;38.38;;;20.13;;
10769;SDS011;5437;50.852;4.438;2022-11-20T09:33:32;32.75;;;18.77;;
10769;SDS011;5437;50.852;4.438;2022-11-20T09:35:58;37.65;;;18.40;;
10769;SDS011;5437;50.852;4.438;2022-11-20T09:38:24;36.25;;;18.42;;
10769;SDS011;5437;50.852;4.438;2022-11-20T09:40:57;34.30;;;17.23;;
10769;SDS011;5437;50.852;4.438;2022-11-20T09:53:46;30.50;;;17.13;;
10769;SDS011;5437;50.852;4.438;2022-11-20T09:56:15;30.20;;;16.85;;
10769;SDS011;5437;50.852;4.438;2022-11-20T09:58:47;26.55;;;15.38;;
10769;SDS011;5437;50.852;4.438;2022-11-20T10:01:16;29.35;;;15.70;;
10769;SDS011;5437;50.852;4.438;2022-11-20T10:03:49;26.55;;;15.20;;
10769;SDS011;5437;50.852;4.438;2022-11-20T10:06:17;29.25;;;15.40;;
10769;SDS011;5437;50.852;4.438;2022-11-20T10:09:00;25.30;;;14.13;;
10769;SDS011;5437;50.852;4.438;2022-11-20T10:14:16;24.67;;;14.27;;
10769;SDS011;5437;50.852;4.438;2022-11-20T10:17:02;21.45;;;13.30;;
10769;SDS011;5437;50.852;4.438;2022-11-20T10:24:36;19.52;;;12.02;;
10769;SDS011;5437;50.852;4.438;2022-11-20T10:27:18;22.50;;;11.60;;
10769;SDS011;5437;50.852;4.438;2022-11-20T10:29:54;20.80;;;11.68;;
10769;SDS011;5437;50.852;4.438;2022-11-20T10:32:23;20.50;;;11.93;;
10769;SDS011;5437;50.852;4.438;2022-11-20T10:37:41;16.35;;;9.90;;
10769;SDS011;5437;50.852;4.438;2022-11-20T10:40:18;14.30;;;9.48;;
10769;SDS011;5437;50.852;4.438;2022-11-20T10:45:36;13.43;;;7.75;;
10769;SDS011;5437;50.852;4.438;2022-11-20T10:48:10;11.95;;;7.75;;
10769;SDS011;5437;50.852;4.438;2022-11-20T10:50:37;12.85;;;7.22;;
10769;SDS011;5437;50.852;4.438;2022-11-20T10:55:39;9.75;;;6.00;;
10769;SDS011;5437;50.852;4.438;2022-11-20T10:58:13;9.45;;;5.13;;
10769;SDS011;5437;50.852;4.438;2022-11-20T11:00:40;6.10;;;4.47;;
10769;SDS011;5437;50.852;4.438;2022-11-20T11:03:18;8.30;;;4.43;;
10769;SDS011;5437;50.852;4.438;2022-11-20T11:08:28;6.22;;;3.80;;
10769;SDS011;5437;50.852;4.438;2022-11-20T11:11:02;6.45;;;4.05;;
10769;SDS011;5437;50.852;4.438;2022-11-20T11:13:33;5.50;;;3.50;;
10769;SDS011;5437;50.852;4.438;2022-11-20T11:15:59;6.50;;;3.58;;
10769;SDS011;5437;50.852;4.438;2022-11-20T11:18:26;5.25;;;3.40;;
10769;SDS011;5437;50.852;4.438;2022-11-20T11:20:52;4.68;;;3.08;;
10769;SDS011;5437;50.852;4.438;2022-11-20T11:23:26;6.80;;;3.40;;
10769;SDS011;5437;50.852;4.438;2022-11-20T11:25:57;5.63;;;3.20;;
10769;SDS011;5437;50.852;4.438;2022-11-20T11:28:24;6.43;;;3.40;;
10769;SDS011;5437;50.852;4.438;2022-11-20T11:30:52;6.40;;;3.28;;
10769;SDS011;5437;50.852;4.438;2022-11-20T11:33:20;6.07;;;3.20;;
10769;SDS011;5437;50.852;4.438;2022-11-20T11:35:53;3.40;;;2.58;;
10769;SDS011;5437;50.852;4.438;2022-11-20T11:38:27;4.78;;;3.10;;
10769;SDS011;5437;50.852;4.438;2022-11-20T11:40:54;5.25;;;3.03;;
10769;SDS011;5437;50.852;4.438;2022-11-20T11:43:23;3.70;;;2.60;;
10769;SDS011;5437;50.852;4.438;2022-11-20T11:46:25;4.47;;;2.60;;
10769;SDS011;5437;50.852;4.438;2022-11-20T11:51:34;3.95;;;2.50;;
10769;SDS011;5437;50.852;4.438;2022-11-20T11:54:00;4.78;;;2.60;;
10769;SDS011;5437;50.852;4.438;2022-11-20T11:56:28;3.53;;;2.40;;
10769;SDS011;5437;50.852;4.438;2022-11-20T11:58:59;4.95;;;2.40;;
10769;SDS011;5437;50.852;4.438;2022-11-20T12:01:34;4.80;;;2.50;;
10769;SDS011;5437;50.852;4.438;2022-11-20T12:06:53;5.78;;;2.47;;
10769;SDS011;5437;50.852;4.438;2022-11-20T12:09:24;5.65;;;2.40;;
10769;SDS011;5437;50.852;4.438;2022-11-20T12:11:58;3.83;;;2.55;;
10769;SDS011;5437;50.852;4.438;2022-11-20T12:14:32;4.57;;;2.60;;
10769;SDS011;5437;50.852;4.438;2022-11-20T12:17:00;6.25;;;2.72;;
10769;SDS011;5437;50.852;4.438;2022-11-20T12:19:28;5.18;;;2.45;;
10769;SDS011;5437;50.852;4.438;2022-11-20T12:22:01;4.38;;;2.30;;
10769;SDS011;5437;50.852;4.438;2022-11-20T12:27:32;4.35;;;2.47;;
10769;SDS011;5437;50.852;4.438;2022-11-20T12:30:07;3.65;;;2.47;;
10769;SDS011;5437;50.852;4.438;2022-11-20T12:40:57;4.80;;;2.70;;
10769;SDS011;5437;50.852;4.438;2022-11-20T12:43:27;6.72;;;3.00;;
10769;SDS011;5437;50.852;4.438;2022-11-20T12:49:08;3.78;;;3.00;;
10769;SDS011;5437;50.852;4.438;2022-11-20T12:55:03;5.05;;;3.05;;
10769;SDS011;5437;50.852;4.438;2022-11-20T13:05:48;7.35;;;3.08;;
10769;SDS011;5437;50.852;4.438;2022-11-20T13:07:54;4.65;;;2.78;;
10769;SDS011;5437;50.852;4.438;2022-11-20T13:10:26;4.15;;;2.75;;
10769;SDS011;5437;50.852;4.438;2022-11-20T13:12:59;5.72;;;3.65;;
10769;SDS011;5437;50.852;4.438;2022-11-20T13:15:40;4.18;;;3.00;;
10769;SDS011;5437;50.852;4.438;2022-11-20T13:18:08;4.15;;;2.83;;
10769;SDS011;5437;50.852;4.438;2022-11-20T13:20:36;5.03;;;2.95;;
10769;SDS011;5437;50.852;4.438;2022-11-20T13:23:06;8.20;;;3.10;;
10769;SDS011;5437;50.852;4.438;2022-11-20T13:25:33;5.07;;;3.30;;
10769;SDS011;5437;50.852;4.438;2022-11-20T13:28:01;5.22;;;3.05;;
10769;SDS011;5437;50.852;4.438;2022-11-20T13:30:29;37.50;;;30.98;;
10769;SDS011;5437;50.852;4.438;2022-11-20T13:33:09;5.72;;;3.30;;
10769;SDS011;5437;50.852;4.438;2022-11-20T13:35:58;4.63;;;3.10;;
10769;SDS011;5437;50.852;4.438;2022-11-20T13:38:24;3.85;;;2.90;;
10769;SDS011;5437;50.852;4.438;2022-11-20T13:43:26;3.97;;;2.60;;
10769;SDS011;5437;50.852;4.438;2022-11-20T13:45:54;4.25;;;2.97;;
10769;SDS011;5437;50.852;4.438;2022-11-20T13:48:30;4.13;;;2.95;;
10769;SDS011;5437;50.852;4.438;2022-11-20T13:50:59;3.50;;;2.88;;
10769;SDS011;5437;50.852;4.438;2022-11-20T13:56:02;3.20;;;2.50;;
10769;SDS011;5437;50.852;4.438;2022-11-20T14:03:24;2.88;;;2.63;;
10769;SDS011;5437;50.852;4.438;2022-11-20T14:05:59;2.90;;;2.40;;
10769;SDS011;5437;50.852;4.438;2022-11-20T14:08:37;3.17;;;2.80;;
10769;SDS011;5437;50.852;4.438;2022-11-20T14:11:26;4.15;;;2.40;;
10769;SDS011;5437;50.852;4.438;2022-11-20T14:16:21;2.97;;;2.38;;
10769;SDS011;5437;50.852;4.438;2022-11-20T14:18:47;4.07;;;2.50;;
10769;SDS011;5437;50.852;4.438;2022-11-20T14:21:23;2.97;;;2.40;;
10769;SDS011;5437;50.852;4.438;2022-11-20T14:23:52;2.38;;;2.17;;
10769;SDS011;5437;50.852;4.438;2022-11-20T14:26:18;2.53;;;2.33;;
10769;SDS011;5437;50.852;4.438;2022-11-20T14:28:47;2.40;;;2.20;;
10769;SDS011;5437;50.852;4.438;2022-11-20T14:31:17;2.20;;;2.00;;
10769;SDS011;5437;50.852;4.438;2022-11-20T14:33:44;2.83;;;2.35;;
10769;SDS011;5437;50.852;4.438;2022-11-20T14:36:16;2.60;;;2.40;;
10769;SDS011;5437;50.852;4.438;2022-11-20T14:38:45;2.58;;;2.30;;
10769;SDS011;5437;50.852;4.438;2022-11-20T14:41:19;2.97;;;2.58;;
10769;SDS011;5437;50.852;4.438;2022-11-20T14:44:01;3.00;;;2.40;;
10769;SDS011;5437;50.852;4.438;2022-11-20T14:46:27;2.30;;;2.10;;
10769;SDS011;5437;50.852;4.438;2022-11-20T14:48:56;2.63;;;2.35;;
10769;SDS011;5437;50.852;4.438;2022-11-20T14:51:24;2.55;;;2.35;;
10769;SDS011;5437;50.852;4.438;2022-11-20T14:54:21;2.33;;;2.13;;
10769;SDS011;5437;50.852;4.438;2022-11-20T14:56:57;2.78;;;2.30;;
10769;SDS011;5437;50.852;4.438;2022-11-20T14:59:24;3.00;;;2.40;;
10769;SDS011;5437;50.852;4.438;2022-11-20T15:01:54;4.50;;;2.88;;
10769;SDS011;5437;50.852;4.438;2022-11-20T15:04:21;3.58;;;2.78;;
10769;SDS011;5437;50.852;4.438;2022-11-20T15:07:05;3.97;;;2.90;;
10769;SDS011;5437;50.852;4.438;2022-11-20T15:09:31;5.28;;;3.40;;
10769;SDS011;5437;50.852;4.438;2022-11-20T15:12:01;3.30;;;3.00;;
10769;SDS011;5437;50.852;4.438;2022-11-20T15:14:30;5.10;;;3.00;;
10769;SDS011;5437;50.852;4.438;2022-11-20T15:17:00;4.25;;;2.97;;
10769;SDS011;5437;50.852;4.438;2022-11-20T15:19:26;3.53;;;3.22;;
10769;SDS011;5437;50.852;4.438;2022-11-20T15:21:52;3.67;;;3.22;;
10769;SDS011;5437;50.852;4.438;2022-11-20T15:24:18;5.03;;;3.10;;
10769;SDS011;5437;50.852;4.438;2022-11-20T15:26:44;4.35;;;2.95;;
10769;SDS011;5437;50.852;4.438;2022-11-20T15:29:11;3.25;;;2.90;;
10769;SDS011;5437;50.852;4.438;2022-11-20T15:31:44;4.40;;;3.30;;
10769;SDS011;5437;50.852;4.438;2022-11-20T15:34:15;7.22;;;4.68;;
10769;SDS011;5437;50.852;4.438;2022-11-20T15:36:42;5.82;;;4.40;;
10769;SDS011;5437;50.852;4.438;2022-11-20T15:39:09;5.97;;;4.07;;
10769;SDS011;5437;50.852;4.438;2022-11-20T15:41:40;5.35;;;4.22;;
10769;SDS011;5437;50.852;4.438;2022-11-20T15:44:07;6.10;;;4.05;;
10769;SDS011;5437;50.852;4.438;2022-11-20T15:46:35;6.75;;;4.90;;
10769;SDS011;5437;50.852;4.438;2022-11-20T15:49:16;7.32;;;4.55;;
10769;SDS011;5437;50.852;4.438;2022-11-20T15:51:48;5.00;;;4.25;;
10769;SDS011;5437;50.852;4.438;2022-11-20T15:54:15;5.63;;;4.25;;
10769;SDS011;5437;50.852;4.438;2022-11-20T15:56:43;7.50;;;4.22;;
10769;SDS011;5437;50.852;4.438;2022-11-20T15:59:09;6.03;;;4.00;;
10769;SDS011;5437;50.852;4.438;2022-11-20T16:01:35;9.82;;;4.30;;
10769;SDS011;5437;50.852;4.438;2022-11-20T16:04:01;5.88;;;3.78;;
10769;SDS011;5437;50.852;4.438;2022-11-20T16:06:27;6.80;;;4.00;;
10769;SDS011;5437;50.852;4.438;2022-11-20T16:08:53;6.68;;;3.85;;
10769;SDS011;5437;50.852;4.438;2022-11-20T16:13:56;5.55;;;3.90;;